PWSweather.com
Personal Weather Stations
Station Observations
KB2SBX
Sugarloaf, Sugarloaf, PA 18249

SugarloafSugarloaf, PA 18249

Lat: 41.0126685, Lon: -76.1082041

Elevation: 1030

Station Type: WS-2080

http://sugarloafpaweather.webng.com/weather.shtml

High Low Average
Temperature 54.9°F12.7°F 30.7°F-0.7°F 42.9°F6.1°F
Dew Point 28.9°F-1.7°F 18.0°F-7.8°F 23.7°F-4.6°F
Winds 4.5 mph NE7.2 mph NE Calm Calm 1.2 mph 1.9 mph
Wind Gusts 12.1 mph19.5 mph -- 4.5 mph7.2 mph
Humidity 65% 29% 47%
Pressure 30.01 in1016.30 in 29.78 in1008.50 in -
Precipitation 0.00 in0.00 in - -
Hour Temp Dew Point Humidity Winds Wind Gusts Pressure Precip Precip Rate Daily Precip Total
12:00 AM 36.5°F2.5°C 18.2°F-7.7°C 47% Calm Calm 7.6 mph12.2 kmh 30.00 in1015.9 mb 0.00 in0.0 mm 0.00 in0.0 mm 0.00 in0.0 mm
12:10 AM 36.3°F2.4°C 18.0°F-7.8°C 47% 1.6 mph SE2.6 kmh SE 3.8 mph6.1 kmh 30.00 in1015.9 mb 0.00 in0.0 mm 0.00 in0.0 mm 0.00 in0.0 mm
12:20 AM 36.3°F2.4°C 18.5°F-7.5°C 48% 3.1 mph SSE5.0 kmh SSE 7.6 mph12.2 kmh 30.00 in1015.9 mb 0.00 in0.0 mm 0.00 in0.0 mm 0.00 in0.0 mm
12:30 AM 36.1°F2.3°C 18.4°F-7.6°C 48% 0.7 mph S1.1 kmh S 6.0 mph9.7 kmh 30.00 in1015.9 mb 0.00 in0.0 mm 0.00 in0.0 mm 0.00 in0.0 mm
12:40 AM 36.1°F2.3°C 18.4°F-7.6°C 48% 0.7 mph W1.1 kmh W 5.4 mph8.7 kmh 30.00 in1015.9 mb 0.00 in0.0 mm 0.00 in0.0 mm 0.00 in0.0 mm
12:50 AM 36.0°F2.2°C 18.2°F-7.7°C 48% 1.6 mph SE2.6 kmh SE 6.0 mph9.7 kmh 30.00 in1015.9 mb 0.00 in0.0 mm 0.00 in0.0 mm 0.00 in0.0 mm
01:00 AM 36.0°F2.2°C 18.2°F-7.7°C 48% 2.2 mph SE3.5 kmh SE 3.8 mph6.1 kmh 29.99 in1015.6 mb 0.00 in0.0 mm 0.00 in0.0 mm 0.00 in0.0 mm
01:10 AM 36.0°F2.2°C 18.2°F-7.7°C 48% 3.1 mph SSE5.0 kmh SSE 5.4 mph8.7 kmh 29.99 in1015.6 mb 0.00 in0.0 mm 0.00 in0.0 mm 0.00 in0.0 mm
01:20 AM 35.8°F2.1°C 18.0°F-7.8°C 48% 2.2 mph S3.5 kmh S 5.4 mph8.7 kmh 29.99 in1015.6 mb 0.00 in0.0 mm 0.00 in0.0 mm 0.00 in0.0 mm
01:30 AM 36.0°F2.2°C 18.7°F-7.4°C 49% Calm Calm 7.6 mph12.2 kmh 29.98 in1015.2 mb 0.00 in0.0 mm 0.00 in0.0 mm 0.00 in0.0 mm
01:40 AM 35.6°F2.0°C 18.4°F-7.6°C 49% 1.6 mph SSE2.6 kmh SSE 3.8 mph6.1 kmh 29.99 in1015.6 mb 0.00 in0.0 mm 0.00 in0.0 mm 0.00 in0.0 mm
01:50 AM 35.6°F2.0°C 18.4°F-7.6°C 49% 1.6 mph S2.6 kmh S 8.3 mph13.4 kmh 29.98 in1015.2 mb 0.00 in0.0 mm 0.00 in0.0 mm 0.00 in0.0 mm
02:00 AM 35.6°F2.0°C 18.8°F-7.3°C 50% 0.7 mph SSW1.1 kmh SSW 7.6 mph12.2 kmh 29.98 in1015.2 mb 0.00 in0.0 mm 0.00 in0.0 mm 0.00 in0.0 mm
02:10 AM 35.2°F1.8°C 18.9°F-7.3°C 51% Calm Calm 2.2 mph3.5 kmh 29.98 in1015.2 mb 0.00 in0.0 mm 0.00 in0.0 mm 0.00 in0.0 mm
02:20 AM 34.9°F1.6°C 18.6°F-7.4°C 51% 0.7 mph WSW1.1 kmh WSW 4.5 mph7.2 kmh 29.98 in1015.2 mb 0.00 in0.0 mm 0.00 in0.0 mm 0.00 in0.0 mm
02:30 AM 34.9°F1.6°C 19.1°F-7.2°C 52% 1.6 mph SW2.6 kmh SW 3.8 mph6.1 kmh 29.98 in1015.2 mb 0.00 in0.0 mm 0.00 in0.0 mm 0.00 in0.0 mm
02:40 AM 34.7°F1.5°C 18.9°F-7.3°C 52% 2.2 mph SSE3.5 kmh SSE 4.5 mph7.2 kmh 29.98 in1015.2 mb 0.00 in0.0 mm 0.00 in0.0 mm 0.00 in0.0 mm
02:50 AM 34.5°F1.4°C 19.2°F-7.1°C 53% 0.7 mph SW1.1 kmh SW 4.5 mph7.2 kmh 29.98 in1015.2 mb 0.00 in0.0 mm 0.00 in0.0 mm 0.00 in0.0 mm
03:00 AM 34.2°F1.2°C 18.8°F-7.3°C 53% Calm Calm 2.2 mph3.5 kmh 29.98 in1015.2 mb 0.00 in0.0 mm 0.00 in0.0 mm 0.00 in0.0 mm
03:10 AM 33.8°F1.0°C 18.9°F-7.3°C 54% Calm Calm 3.1 mph5.0 kmh 29.98 in1015.2 mb 0.00 in0.0 mm 0.00 in0.0 mm 0.00 in0.0 mm
03:20 AM 33.8°F1.0°C 19.8°F-6.8°C 56% Calm Calm 3.8 mph6.1 kmh 29.98 in1015.2 mb 0.00 in0.0 mm 0.00 in0.0 mm 0.00 in0.0 mm
03:30 AM 33.6°F0.9°C 20.0°F-6.7°C 57% Calm Calm 3.1 mph5.0 kmh 29.98 in1015.2 mb 0.00 in0.0 mm 0.00 in0.0 mm 0.00 in0.0 mm
03:40 AM 33.4°F0.8°C 19.9°F-6.7°C 57% 0.7 mph NW1.1 kmh NW 4.5 mph7.2 kmh 29.98 in1015.2 mb 0.00 in0.0 mm 0.00 in0.0 mm 0.00 in0.0 mm
03:50 AM 33.4°F0.8°C 19.9°F-6.7°C 57% 0.7 mph SW1.1 kmh SW 5.4 mph8.7 kmh 29.98 in1015.2 mb 0.00 in0.0 mm 0.00 in0.0 mm 0.00 in0.0 mm
04:00 AM 33.3°F0.7°C 20.1°F-6.6°C 58% Calm Calm 3.1 mph5.0 kmh 29.98 in1015.2 mb 0.00 in0.0 mm 0.00 in0.0 mm 0.00 in0.0 mm
04:10 AM 32.9°F0.5°C 20.2°F-6.6°C 59% Calm Calm 1.6 mph2.6 kmh 29.98 in1015.2 mb 0.00 in0.0 mm 0.00 in0.0 mm 0.00 in0.0 mm
04:20 AM 32.5°F0.3°C 19.8°F-6.8°C 59% Calm Calm 3.1 mph5.0 kmh 29.98 in1015.2 mb 0.00 in0.0 mm 0.00 in0.0 mm 0.00 in0.0 mm
04:30 AM 32.5°F0.3°C 19.8°F-6.8°C 59% Calm Calm 3.8 mph6.1 kmh 29.99 in1015.6 mb 0.00 in0.0 mm 0.00 in0.0 mm 0.00 in0.0 mm
04:40 AM 32.4°F0.2°C 20.1°F-6.6°C 60% 0.7 mph SE1.1 kmh SE 3.1 mph5.0 kmh 29.98 in1015.2 mb 0.00 in0.0 mm 0.00 in0.0 mm 0.00 in0.0 mm
04:50 AM 32.2°F0.1°C 19.9°F-6.7°C 60% Calm Calm 3.1 mph5.0 kmh 29.98 in1015.2 mb 0.00 in0.0 mm 0.00 in0.0 mm 0.00 in0.0 mm
05:00 AM 32.0°F0.0°C 19.7°F-6.8°C 60% Calm Calm 3.1 mph5.0 kmh 29.98 in1015.2 mb 0.00 in0.0 mm 0.00 in0.0 mm 0.00 in0.0 mm
05:10 AM 31.8°F-0.1°C 20.3°F-6.5°C 62% Calm Calm 2.2 mph3.5 kmh 29.98 in1015.2 mb 0.00 in0.0 mm 0.00 in0.0 mm 0.00 in0.0 mm
05:20 AM 31.8°F-0.1°C 20.3°F-6.5°C 62% Calm Calm 2.2 mph3.5 kmh 29.97 in1014.9 mb 0.00 in0.0 mm 0.00 in0.0 mm 0.00 in0.0 mm
05:30 AM 31.6°F-0.2°C 20.1°F-6.6°C 62% 0.7 mph WSW1.1 kmh WSW 3.1 mph5.0 kmh 29.98 in1015.2 mb 0.00 in0.0 mm 0.00 in0.0 mm 0.00 in0.0 mm
05:40 AM 31.5°F-0.3°C 20.0°F-6.7°C 62% Calm Calm 2.2 mph3.5 kmh 29.98 in1015.2 mb 0.00 in0.0 mm 0.00 in0.0 mm 0.00 in0.0 mm
05:50 AM 31.5°F-0.3°C 20.3°F-6.5°C 63% Calm Calm 3.1 mph5.0 kmh 29.98 in1015.2 mb 0.00 in0.0 mm 0.00 in0.0 mm 0.00 in0.0 mm
06:00 AM 31.5°F-0.3°C 20.3°F-6.5°C 63% Calm Calm 3.1 mph5.0 kmh 29.99 in1015.6 mb 0.00 in0.0 mm 0.00 in0.0 mm 0.00 in0.0 mm
06:10 AM 31.3°F-0.4°C 20.2°F-6.6°C 63% Calm Calm 0.7 mph1.1 kmh 30.00 in1015.9 mb 0.00 in0.0 mm 0.00 in0.0 mm 0.00 in0.0 mm
06:20 AM 30.9°F-0.6°C 20.6°F-6.3°C 65% Calm Calm 2.2 mph3.5 kmh 30.00 in1015.9 mb 0.00 in0.0 mm 0.00 in0.0 mm 0.00 in0.0 mm
06:30 AM 30.7°F-0.7°C 20.4°F-6.4°C 65% Calm Calm 1.6 mph2.6 kmh 30.01 in1016.3 mb 0.00 in0.0 mm 0.00 in0.0 mm 0.00 in0.0 mm
06:40 AM 30.7°F-0.7°C 20.4°F-6.4°C 65% 1.6 mph W2.6 kmh W 2.2 mph3.5 kmh 30.01 in1016.3 mb 0.00 in0.0 mm 0.00 in0.0 mm 0.00 in0.0 mm
06:50 AM 31.1°F-0.5°C 20.7°F-6.3°C 65% Calm Calm 3.8 mph6.1 kmh 30.01 in1016.3 mb 0.00 in0.0 mm 0.00 in0.0 mm 0.00 in0.0 mm
07:00 AM 31.6°F-0.2°C 21.3°F-5.9°C 65% 0.7 mph NW1.1 kmh NW 2.2 mph3.5 kmh 30.01 in1016.3 mb 0.00 in0.0 mm 0.00 in0.0 mm 0.00 in0.0 mm
07:10 AM 32.4°F0.2°C 21.6°F-5.8°C 64% 0.7 mph WNW1.1 kmh WNW 2.2 mph3.5 kmh 30.01 in1016.3 mb 0.00 in0.0 mm 0.00 in0.0 mm 0.00 in0.0 mm
07:20 AM 33.3°F0.7°C 22.1°F-5.5°C 63% 1.6 mph WNW2.6 kmh WNW 3.8 mph6.1 kmh 30.01 in1016.3 mb 0.00 in0.0 mm 0.00 in0.0 mm 0.00 in0.0 mm
07:30 AM 34.0°F1.1°C 21.6°F-5.8°C 60% 3.1 mph WNW5.0 kmh WNW 5.4 mph8.7 kmh 30.00 in1015.9 mb 0.00 in0.0 mm 0.00 in0.0 mm 0.00 in0.0 mm
07:40 AM 35.2°F1.8°C 22.4°F-5.3°C 59% 1.6 mph WSW2.6 kmh WSW 5.4 mph8.7 kmh 30.00 in1015.9 mb 0.00 in0.0 mm 0.00 in0.0 mm 0.00 in0.0 mm
07:50 AM 35.6°F2.0°C 21.5°F-5.8°C 56% Calm Calm 3.8 mph6.1 kmh 30.00 in1015.9 mb 0.00 in0.0 mm 0.00 in0.0 mm 0.00 in0.0 mm
08:00 AM 36.1°F2.3°C 22.0°F-5.6°C 56% 0.7 mph NNW1.1 kmh NNW 3.8 mph6.1 kmh 30.00 in1015.9 mb 0.00 in0.0 mm 0.00 in0.0 mm 0.00 in0.0 mm
08:10 AM 36.9°F2.7°C 22.7°F-5.2°C 56% 2.2 mph NW3.5 kmh NW 4.5 mph7.2 kmh 30.00 in1015.9 mb 0.00 in0.0 mm 0.00 in0.0 mm 0.00 in0.0 mm
08:20 AM 37.2°F2.9°C 22.6°F-5.2°C 55% 2.2 mph WNW3.5 kmh WNW 4.5 mph7.2 kmh 30.00 in1015.9 mb 0.00 in0.0 mm 0.00 in0.0 mm 0.00 in0.0 mm
08:30 AM 37.8°F3.2°C 24.3°F-4.3°C 58% 2.2 mph N3.5 kmh N 3.8 mph6.1 kmh 30.00 in1015.9 mb 0.00 in0.0 mm 0.00 in0.0 mm 0.00 in0.0 mm
08:40 AM 38.3°F3.5°C 24.4°F-4.2°C 57% 0.7 mph NNW1.1 kmh NNW 3.8 mph6.1 kmh 30.00 in1015.9 mb 0.00 in0.0 mm 0.00 in0.0 mm 0.00 in0.0 mm
08:50 AM 38.1°F3.4°C 23.4°F-4.8°C 55% 2.2 mph NW3.5 kmh NW 7.6 mph12.2 kmh 30.00 in1015.9 mb 0.00 in0.0 mm 0.00 in0.0 mm 0.00 in0.0 mm
09:00 AM 38.7°F3.7°C 23.9°F-4.5°C 55% 2.2 mph WSW3.5 kmh WSW 5.4 mph8.7 kmh 29.99 in1015.6 mb 0.00 in0.0 mm 0.00 in0.0 mm 0.00 in0.0 mm
09:10 AM 38.5°F3.6°C 24.2°F-4.3°C 56% 1.6 mph NW2.6 kmh NW 3.8 mph6.1 kmh 29.99 in1015.6 mb 0.00 in0.0 mm 0.00 in0.0 mm 0.00 in0.0 mm
09:20 AM 39.0°F3.9°C 24.2°F-4.3°C 55% 0.7 mph W1.1 kmh W 4.5 mph7.2 kmh 29.99 in1015.6 mb 0.00 in0.0 mm 0.00 in0.0 mm 0.00 in0.0 mm
09:30 AM 39.0°F3.9°C 24.2°F-4.3°C 55% 1.6 mph NE2.6 kmh NE 3.8 mph6.1 kmh 29.99 in1015.6 mb 0.00 in0.0 mm 0.00 in0.0 mm 0.00 in0.0 mm
09:40 AM 41.2°F5.1°C 25.4°F-3.7°C 53% 2.2 mph SSW3.5 kmh SSW 5.4 mph8.7 kmh 29.98 in1015.2 mb 0.00 in0.0 mm 0.00 in0.0 mm 0.00 in0.0 mm
09:50 AM 41.5°F5.3°C 24.8°F-4.0°C 51% 1.6 mph S2.6 kmh S 5.4 mph8.7 kmh 29.98 in1015.2 mb 0.00 in0.0 mm 0.00 in0.0 mm 0.00 in0.0 mm
10:00 AM 41.4°F5.2°C 24.1°F-4.4°C 50% 2.2 mph NNW3.5 kmh NNW 7.6 mph12.2 kmh 29.98 in1015.2 mb 0.00 in0.0 mm 0.00 in0.0 mm 0.00 in0.0 mm
10:10 AM 41.4°F5.2°C 24.1°F-4.4°C 50% Calm Calm 3.8 mph6.1 kmh 29.98 in1015.2 mb 0.00 in0.0 mm 0.00 in0.0 mm 0.00 in0.0 mm
10:20 AM 41.4°F5.2°C 24.1°F-4.4°C 50% 2.2 mph WNW3.5 kmh WNW 5.4 mph8.7 kmh 29.98 in1015.2 mb 0.00 in0.0 mm 0.00 in0.0 mm 0.00 in0.0 mm
10:30 AM 42.1°F5.6°C 25.3°F-3.7°C 51% 3.1 mph NE5.0 kmh NE 4.5 mph7.2 kmh 29.96 in1014.6 mb 0.00 in0.0 mm 0.00 in0.0 mm 0.00 in0.0 mm
10:40 AM 43.7°F6.5°C 25.8°F-3.4°C 49% 2.2 mph SW3.5 kmh SW 6.0 mph9.7 kmh 29.96 in1014.6 mb 0.00 in0.0 mm 0.00 in0.0 mm 0.00 in0.0 mm
10:50 AM 43.5°F6.4°C 24.6°F-4.1°C 47% 3.1 mph NE5.0 kmh NE 8.3 mph13.4 kmh 29.97 in1014.9 mb 0.00 in0.0 mm 0.00 in0.0 mm 0.00 in0.0 mm
11:00 AM 43.3°F6.3°C 24.0°F-4.4°C 46% 2.2 mph WSW3.5 kmh WSW 5.4 mph8.7 kmh 29.96 in1014.6 mb 0.00 in0.0 mm 0.00 in0.0 mm 0.00 in0.0 mm
11:10 AM 44.4°F6.9°C 26.0°F-3.3°C 48% 3.8 mph NNW6.1 kmh NNW 5.4 mph8.7 kmh 29.97 in1014.9 mb 0.00 in0.0 mm 0.00 in0.0 mm 0.00 in0.0 mm
11:20 AM 43.7°F6.5°C 23.8°F-4.6°C 45% 3.1 mph NW5.0 kmh NW 6.9 mph11.1 kmh 29.97 in1014.9 mb 0.00 in0.0 mm 0.00 in0.0 mm 0.00 in0.0 mm
11:30 AM 43.5°F6.4°C 24.1°F-4.4°C 46% 2.2 mph NW3.5 kmh NW 5.4 mph8.7 kmh 29.96 in1014.6 mb 0.00 in0.0 mm 0.00 in0.0 mm 0.00 in0.0 mm
11:40 AM 44.6°F7.0°C 25.1°F-3.8°C 46% 0.7 mph NNE1.1 kmh NNE 6.9 mph11.1 kmh 29.96 in1014.6 mb 0.00 in0.0 mm 0.00 in0.0 mm 0.00 in0.0 mm
11:50 AM 45.7°F7.6°C 26.6°F-3.0°C 47% 2.2 mph S3.5 kmh S 6.9 mph11.1 kmh 29.95 in1014.2 mb 0.00 in0.0 mm 0.00 in0.0 mm 0.00 in0.0 mm
12:00 PM 46.0°F7.8°C 24.8°F-4.0°C 43% 1.6 mph SSW2.6 kmh SSW 6.0 mph9.7 kmh 29.95 in1014.2 mb 0.00 in0.0 mm 0.00 in0.0 mm 0.00 in0.0 mm
12:10 PM 46.4°F8.0°C 25.7°F-3.5°C 44% 1.6 mph SE2.6 kmh SE 3.1 mph5.0 kmh 29.95 in1014.2 mb 0.00 in0.0 mm 0.00 in0.0 mm 0.00 in0.0 mm
12:20 PM 46.4°F8.0°C 25.7°F-3.5°C 44% 0.7 mph W1.1 kmh W 4.5 mph7.2 kmh 29.94 in1013.9 mb 0.00 in0.0 mm 0.00 in0.0 mm 0.00 in0.0 mm
12:30 PM 46.9°F8.3°C 26.2°F-3.2°C 44% Calm Calm 4.5 mph7.2 kmh 29.93 in1013.5 mb 0.00 in0.0 mm 0.00 in0.0 mm 0.00 in0.0 mm
12:40 PM 47.3°F8.5°C 26.5°F-3.1°C 44% 2.2 mph SW3.5 kmh SW 5.4 mph8.7 kmh 29.93 in1013.5 mb 0.00 in0.0 mm 0.00 in0.0 mm 0.00 in0.0 mm
12:50 PM 46.6°F8.1°C 25.9°F-3.4°C 44% 3.1 mph N5.0 kmh N 6.9 mph11.1 kmh 29.92 in1013.2 mb 0.00 in0.0 mm 0.00 in0.0 mm 0.00 in0.0 mm
01:00 PM 47.8°F8.8°C 27.5°F-2.5°C 45% Calm Calm 7.6 mph12.2 kmh 29.91 in1012.9 mb 0.00 in0.0 mm 0.00 in0.0 mm 0.00 in0.0 mm
01:10 PM 48.6°F9.2°C 26.5°F-3.1°C 42% 1.6 mph ESE2.6 kmh ESE 6.0 mph9.7 kmh 29.91 in1012.9 mb 0.00 in0.0 mm 0.00 in0.0 mm 0.00 in0.0 mm
01:20 PM 49.8°F9.9°C 27.7°F-2.4°C 42% 0.7 mph WSW1.1 kmh WSW 8.3 mph13.4 kmh 29.91 in1012.9 mb 0.00 in0.0 mm 0.00 in0.0 mm 0.00 in0.0 mm
01:30 PM 50.0°F10.0°C 27.2°F-2.7°C 41% 1.6 mph S2.6 kmh S 5.4 mph8.7 kmh 29.91 in1012.9 mb 0.00 in0.0 mm 0.00 in0.0 mm 0.00 in0.0 mm
01:40 PM 50.4°F10.2°C 27.0°F-2.8°C 40% 4.5 mph NE7.2 kmh NE 6.0 mph9.7 kmh 29.90 in1012.5 mb 0.00 in0.0 mm 0.00 in0.0 mm 0.00 in0.0 mm
01:50 PM 50.7°F10.4°C 27.3°F-2.6°C 40% 0.7 mph NW1.1 kmh NW 6.0 mph9.7 kmh 29.88 in1011.9 mb 0.00 in0.0 mm 0.00 in0.0 mm 0.00 in0.0 mm
02:00 PM 51.8°F11.0°C 27.6°F-2.4°C 39% 1.6 mph ENE2.6 kmh ENE 5.4 mph8.7 kmh 29.88 in1011.9 mb 0.00 in0.0 mm 0.00 in0.0 mm 0.00 in0.0 mm
02:10 PM 52.7°F11.5°C 28.5°F-1.9°C 39% 3.8 mph SSE6.1 kmh SSE 5.4 mph8.7 kmh 29.87 in1011.5 mb 0.00 in0.0 mm 0.00 in0.0 mm 0.00 in0.0 mm
02:20 PM 53.8°F12.1°C 28.8°F-1.8°C 38% 3.1 mph SW5.0 kmh SW 7.6 mph12.2 kmh 29.87 in1011.5 mb 0.00 in0.0 mm 0.00 in0.0 mm 0.00 in0.0 mm
02:30 PM 53.6°F12.0°C 25.9°F-3.4°C 34% 0.7 mph NW1.1 kmh NW 6.0 mph9.7 kmh 29.86 in1011.2 mb 0.00 in0.0 mm 0.00 in0.0 mm 0.00 in0.0 mm
02:40 PM 53.1°F11.7°C 25.5°F-3.6°C 34% 2.2 mph NW3.5 kmh NW 7.6 mph12.2 kmh 29.86 in1011.2 mb 0.00 in0.0 mm 0.00 in0.0 mm 0.00 in0.0 mm
02:50 PM 53.1°F11.7°C 27.5°F-2.5°C 37% 1.6 mph SW2.6 kmh SW 8.3 mph13.4 kmh 29.85 in1010.8 mb 0.00 in0.0 mm 0.00 in0.0 mm 0.00 in0.0 mm
03:00 PM 53.1°F11.7°C 26.2°F-3.2°C 35% 3.1 mph NW5.0 kmh NW 6.0 mph9.7 kmh 29.85 in1010.8 mb 0.00 in0.0 mm 0.00 in0.0 mm 0.00 in0.0 mm
03:10 PM 53.2°F11.8°C 28.9°F-1.7°C 39% 3.1 mph WNW5.0 kmh WNW 5.4 mph8.7 kmh 29.85 in1010.8 mb 0.00 in0.0 mm 0.00 in0.0 mm 0.00 in0.0 mm
03:20 PM 54.3°F12.4°C 27.3°F-2.6°C 35% 3.1 mph W5.0 kmh W 4.5 mph7.2 kmh 29.84 in1010.5 mb 0.00 in0.0 mm 0.00 in0.0 mm 0.00 in0.0 mm
03:30 PM 54.0°F12.2°C 25.5°F-3.6°C 33% 0.7 mph SW1.1 kmh SW 5.4 mph8.7 kmh 29.84 in1010.5 mb 0.00 in0.0 mm 0.00 in0.0 mm 0.00 in0.0 mm
03:40 PM 53.4°F11.9°C 25.8°F-3.4°C 34% 1.6 mph SW2.6 kmh SW 4.5 mph7.2 kmh 29.84 in1010.5 mb 0.00 in0.0 mm 0.00 in0.0 mm 0.00 in0.0 mm
03:50 PM 54.0°F12.2°C 26.9°F-2.8°C 35% 2.2 mph SW3.5 kmh SW 4.5 mph7.2 kmh 29.83 in1010.2 mb 0.00 in0.0 mm 0.00 in0.0 mm 0.00 in0.0 mm
04:00 PM 53.8°F12.1°C 26.1°F-3.3°C 34% 0.7 mph S1.1 kmh S 4.5 mph7.2 kmh 29.82 in1009.8 mb 0.00 in0.0 mm 0.00 in0.0 mm 0.00 in0.0 mm
04:10 PM 54.1°F12.3°C 24.9°F-3.9°C 32% 2.2 mph WSW3.5 kmh WSW 3.8 mph6.1 kmh 29.82 in1009.8 mb 0.00 in0.0 mm 0.00 in0.0 mm 0.00 in0.0 mm
04:20 PM 54.1°F12.3°C 26.4°F-3.1°C 34% Calm Calm 5.4 mph8.7 kmh 29.81 in1009.5 mb 0.00 in0.0 mm 0.00 in0.0 mm 0.00 in0.0 mm
04:30 PM 54.9°F12.7°C 25.6°F-3.6°C 32% 1.6 mph NW2.6 kmh NW 5.4 mph8.7 kmh 29.81 in1009.5 mb 0.00 in0.0 mm 0.00 in0.0 mm 0.00 in0.0 mm
04:40 PM 54.9°F12.7°C 25.6°F-3.6°C 32% 1.6 mph N2.6 kmh N 6.9 mph11.1 kmh 29.80 in1009.1 mb 0.00 in0.0 mm 0.00 in0.0 mm 0.00 in0.0 mm
04:50 PM 54.9°F12.7°C 23.2°F-4.9°C 29% 1.6 mph WNW2.6 kmh WNW 6.0 mph9.7 kmh 29.80 in1009.1 mb 0.00 in0.0 mm 0.00 in0.0 mm 0.00 in0.0 mm
05:00 PM 54.7°F12.6°C 23.9°F-4.5°C 30% 1.6 mph WSW2.6 kmh WSW 6.0 mph9.7 kmh 29.81 in1009.5 mb 0.00 in0.0 mm 0.00 in0.0 mm 0.00 in0.0 mm
05:10 PM 54.5°F12.5°C 23.7°F-4.6°C 30% 1.6 mph NW2.6 kmh NW 3.8 mph6.1 kmh 29.80 in1009.1 mb 0.00 in0.0 mm 0.00 in0.0 mm 0.00 in0.0 mm
05:20 PM 54.1°F12.3°C 24.2°F-4.3°C 31% Calm Calm 4.5 mph7.2 kmh 29.80 in1009.1 mb 0.00 in0.0 mm 0.00 in0.0 mm 0.00 in0.0 mm
05:30 PM 54.1°F12.3°C 24.9°F-3.9°C 32% 2.2 mph NE3.5 kmh NE 3.8 mph6.1 kmh 29.79 in1008.8 mb 0.00 in0.0 mm 0.00 in0.0 mm 0.00 in0.0 mm
05:40 PM 53.6°F12.0°C 23.7°F-4.6°C 31% 1.6 mph SSW2.6 kmh SSW 4.5 mph7.2 kmh 29.80 in1009.1 mb 0.00 in0.0 mm 0.00 in0.0 mm 0.00 in0.0 mm
05:50 PM 53.6°F12.0°C 23.7°F-4.6°C 31% 0.7 mph N1.1 kmh N 3.8 mph6.1 kmh 29.80 in1009.1 mb 0.00 in0.0 mm 0.00 in0.0 mm 0.00 in0.0 mm
06:00 PM 53.2°F11.8°C 24.2°F-4.3°C 32% 0.7 mph ENE1.1 kmh ENE 5.4 mph8.7 kmh 29.79 in1008.8 mb 0.00 in0.0 mm 0.00 in0.0 mm 0.00 in0.0 mm
06:10 PM 53.2°F11.8°C 24.2°F-4.3°C 32% 1.6 mph NNW2.6 kmh NNW 4.5 mph7.2 kmh 29.79 in1008.8 mb 0.00 in0.0 mm 0.00 in0.0 mm 0.00 in0.0 mm
06:20 PM 53.1°F11.7°C 23.2°F-4.9°C 31% Calm Calm 3.8 mph6.1 kmh 29.79 in1008.8 mb 0.00 in0.0 mm 0.00 in0.0 mm 0.00 in0.0 mm
06:30 PM 52.9°F11.6°C 23.8°F-4.6°C 32% Calm Calm 3.1 mph5.0 kmh 29.79 in1008.8 mb 0.00 in0.0 mm 0.00 in0.0 mm 0.00 in0.0 mm
06:40 PM 52.7°F11.5°C 24.4°F-4.2°C 33% Calm Calm 3.8 mph6.1 kmh 29.79 in1008.8 mb 0.00 in0.0 mm 0.00 in0.0 mm 0.00 in0.0 mm
06:50 PM 52.3°F11.3°C 24.1°F-4.4°C 33% Calm Calm 2.2 mph3.5 kmh 29.79 in1008.8 mb 0.00 in0.0 mm 0.00 in0.0 mm 0.00 in0.0 mm
07:00 PM 52.0°F11.1°C 23.8°F-4.6°C 33% Calm Calm 1.6 mph2.6 kmh 29.78 in1008.5 mb 0.00 in0.0 mm 0.00 in0.0 mm 0.00 in0.0 mm
07:10 PM 51.6°F10.9°C 24.9°F-3.9°C 35% Calm Calm 0.7 mph1.1 kmh 29.79 in1008.8 mb 0.00 in0.0 mm 0.00 in0.0 mm 0.00 in0.0 mm
07:20 PM 51.1°F10.6°C 25.7°F-3.5°C 37% Calm Calm 0.7 mph1.1 kmh 29.79 in1008.8 mb 0.00 in0.0 mm 0.00 in0.0 mm 0.00 in0.0 mm
07:30 PM 50.4°F10.2°C 27.0°F-2.8°C 40% Calm Calm -- 29.79 in1008.8 mb 0.00 in0.0 mm 0.00 in0.0 mm 0.00 in0.0 mm
07:40 PM 49.8°F9.9°C 28.2°F-2.1°C 43% Calm Calm -- 29.79 in1008.8 mb 0.00 in0.0 mm 0.00 in0.0 mm 0.00 in0.0 mm
07:50 PM 49.1°F9.5°C 27.6°F-2.4°C 43% 0.7 mph N1.1 kmh N 1.6 mph2.6 kmh 29.79 in1008.8 mb 0.00 in0.0 mm 0.00 in0.0 mm 0.00 in0.0 mm
08:00 PM 48.2°F9.0°C 27.3°F-2.6°C 44% Calm Calm 1.6 mph2.6 kmh 29.79 in1008.8 mb 0.00 in0.0 mm 0.00 in0.0 mm 0.00 in0.0 mm
08:10 PM 47.1°F8.4°C 28.5°F-1.9°C 48% Calm Calm 1.6 mph2.6 kmh 29.79 in1008.8 mb 0.00 in0.0 mm 0.00 in0.0 mm 0.00 in0.0 mm
08:20 PM 46.2°F7.9°C 28.1°F-2.2°C 49% Calm Calm 1.6 mph2.6 kmh 29.79 in1008.8 mb 0.00 in0.0 mm 0.00 in0.0 mm 0.00 in0.0 mm
08:30 PM 45.7°F7.6°C 27.6°F-2.4°C 49% Calm Calm 1.6 mph2.6 kmh 29.80 in1009.1 mb 0.00 in0.0 mm 0.00 in0.0 mm 0.00 in0.0 mm
08:40 PM 45.1°F7.3°C 27.6°F-2.4°C 50% Calm Calm 0.7 mph1.1 kmh 29.79 in1008.8 mb 0.00 in0.0 mm 0.00 in0.0 mm 0.00 in0.0 mm
08:50 PM 44.8°F7.1°C 27.8°F-2.3°C 51% Calm Calm 1.6 mph2.6 kmh 29.80 in1009.1 mb 0.00 in0.0 mm 0.00 in0.0 mm 0.00 in0.0 mm
09:00 PM 44.4°F6.9°C 28.4°F-2.0°C 53% 1.6 mph N2.6 kmh N 3.1 mph5.0 kmh 29.80 in1009.1 mb 0.00 in0.0 mm 0.00 in0.0 mm 0.00 in0.0 mm
09:10 PM 45.3°F7.4°C 27.3°F-2.6°C 49% Calm Calm 6.9 mph11.1 kmh 29.80 in1009.1 mb 0.00 in0.0 mm 0.00 in0.0 mm 0.00 in0.0 mm
09:20 PM 45.7°F7.6°C 27.1°F-2.7°C 48% 1.6 mph NW2.6 kmh NW 2.2 mph3.5 kmh 29.80 in1009.1 mb 0.00 in0.0 mm 0.00 in0.0 mm 0.00 in0.0 mm
09:30 PM 46.0°F7.8°C 27.0°F-2.8°C 47% 0.7 mph N1.1 kmh N 3.1 mph5.0 kmh 29.80 in1009.1 mb 0.00 in0.0 mm 0.00 in0.0 mm 0.00 in0.0 mm
09:40 PM 46.0°F7.8°C 26.4°F-3.1°C 46% 1.6 mph NNW2.6 kmh NNW 5.4 mph8.7 kmh 29.80 in1009.1 mb 0.00 in0.0 mm 0.00 in0.0 mm 0.00 in0.0 mm
09:50 PM 46.0°F7.8°C 25.9°F-3.4°C 45% 1.6 mph NW2.6 kmh NW 3.8 mph6.1 kmh 29.80 in1009.1 mb 0.00 in0.0 mm 0.00 in0.0 mm 0.00 in0.0 mm
10:00 PM 45.9°F7.7°C 25.7°F-3.5°C 45% 1.6 mph NW2.6 kmh NW 3.8 mph6.1 kmh 29.80 in1009.1 mb 0.00 in0.0 mm 0.00 in0.0 mm 0.00 in0.0 mm
10:10 PM 45.7°F7.6°C 25.6°F-3.6°C 45% 2.2 mph NNW3.5 kmh NNW 4.5 mph7.2 kmh 29.80 in1009.1 mb 0.00 in0.0 mm 0.00 in0.0 mm 0.00 in0.0 mm
10:20 PM 45.7°F7.6°C 25.6°F-3.6°C 45% 2.2 mph NNW3.5 kmh NNW 5.4 mph8.7 kmh 29.80 in1009.1 mb 0.00 in0.0 mm 0.00 in0.0 mm 0.00 in0.0 mm
10:30 PM 45.7°F7.6°C 26.1°F-3.3°C 46% 0.7 mph NNW1.1 kmh NNW 4.5 mph7.2 kmh 29.80 in1009.1 mb 0.00 in0.0 mm 0.00 in0.0 mm 0.00 in0.0 mm
10:40 PM 45.5°F7.5°C 25.9°F-3.4°C 46% 1.6 mph NNW2.6 kmh NNW 9.2 mph14.8 kmh 29.79 in1008.8 mb 0.00 in0.0 mm 0.00 in0.0 mm 0.00 in0.0 mm
10:50 PM 45.5°F7.5°C 27.0°F-2.8°C 48% 2.2 mph NNW3.5 kmh NNW 9.2 mph14.8 kmh 29.80 in1009.1 mb 0.00 in0.0 mm 0.00 in0.0 mm 0.00 in0.0 mm
11:00 PM 45.3°F7.4°C 26.8°F-2.9°C 48% Calm Calm 12.1 mph19.5 kmh 29.80 in1009.1 mb 0.00 in0.0 mm 0.00 in0.0 mm 0.00 in0.0 mm
11:10 PM 45.1°F7.3°C 26.6°F-3.0°C 48% Calm Calm 6.9 mph11.1 kmh 29.80 in1009.1 mb 0.00 in0.0 mm 0.00 in0.0 mm 0.00 in0.0 mm
11:20 PM 44.6°F7.0°C 26.1°F-3.3°C 48% 1.6 mph NNE2.6 kmh NNE 5.4 mph8.7 kmh 29.80 in1009.1 mb 0.00 in0.0 mm 0.00 in0.0 mm 0.00 in0.0 mm
11:30 PM 44.1°F6.7°C 26.6°F-3.0°C 50% Calm Calm 3.1 mph5.0 kmh 29.80 in1009.1 mb 0.00 in0.0 mm 0.00 in0.0 mm 0.00 in0.0 mm
11:40 PM 43.2°F6.2°C 26.3°F-3.2°C 51% 0.7 mph NE1.1 kmh NE 2.2 mph3.5 kmh 29.80 in1009.1 mb 0.00 in0.0 mm 0.00 in0.0 mm 0.00 in0.0 mm
11:50 PM 43.0°F6.1°C 26.6°F-3.0°C 52% Calm Calm 2.2 mph3.5 kmh 29.80 in1009.1 mb 0.00 in0.0 mm 0.00 in0.0 mm 0.00 in0.0 mm